createdAt,value
2023-04-22T00:01:37.233Z,9.32
2023-04-22T00:04:39.189Z,9.15
2023-04-22T00:07:41.298Z,9.07
2023-04-22T00:10:43.093Z,8.95
2023-04-22T00:13:46.224Z,8.92
2023-04-22T00:16:47.954Z,8.99
2023-04-22T00:19:49.691Z,8.96
2023-04-22T00:22:51.428Z,9.11
2023-04-22T00:25:53.173Z,9.09
2023-04-22T00:28:57.147Z,8.73
2023-04-22T00:31:58.933Z,8.50
2023-04-22T00:35:00.787Z,8.43
2023-04-22T00:38:02.562Z,8.34
2023-04-22T00:41:05.062Z,8.48
2023-04-22T00:44:09.834Z,8.50
2023-04-22T00:47:12.348Z,8.26
2023-04-22T00:50:14.627Z,8.34
2023-04-22T00:53:16.413Z,8.37
2023-04-22T00:56:19.569Z,8.31
2023-04-22T00:59:24.118Z,8.31
2023-04-22T01:02:26.307Z,8.35
2023-04-22T01:05:30.799Z,8.15
2023-04-22T01:08:33.607Z,8.07
2023-04-22T01:11:35.835Z,7.84
2023-04-22T01:14:39.429Z,7.89
2023-04-22T01:17:41.404Z,7.89
2023-04-22T01:20:43.250Z,7.95
2023-04-22T01:23:46.541Z,7.95
2023-04-22T01:26:48.708Z,7.99
2023-04-22T01:29:50.588Z,8.08
2023-04-22T01:32:53.025Z,8.02
2023-04-22T01:35:55.036Z,7.84
2023-04-22T01:38:58.628Z,7.80
2023-04-22T01:42:00.534Z,7.83
2023-04-22T01:45:02.278Z,7.71
2023-04-22T01:48:04.758Z,7.53
2023-04-22T01:51:06.682Z,7.56
2023-04-22T01:54:10.204Z,7.63
2023-04-22T01:57:12.803Z,7.66
2023-04-22T02:00:14.964Z,7.69
2023-04-22T02:03:16.677Z,7.61
2023-04-22T02:06:18.557Z,7.67
2023-04-22T02:09:21.699Z,7.56
2023-04-22T02:12:23.456Z,7.56
2023-04-22T02:15:25.365Z,7.50
2023-04-22T02:18:27.040Z,7.24
2023-04-22T02:21:29.184Z,6.99
2023-04-22T02:24:32.349Z,6.97
2023-04-22T02:27:34.206Z,6.62
2023-04-22T02:30:36.072Z,6.66
2023-04-22T02:33:37.786Z,6.58
2023-04-22T02:36:39.608Z,6.78
2023-04-22T02:39:43.002Z,6.86
2023-04-22T02:42:44.854Z,6.90
2023-04-22T02:45:46.533Z,6.81
2023-04-22T02:48:48.288Z,6.79
2023-04-22T02:51:50.051Z,6.83
2023-04-22T02:54:53.138Z,6.90
2023-04-22T02:57:54.873Z,6.99
2023-04-22T03:00:56.722Z,6.39
2023-04-22T03:03:58.866Z,6.65
2023-04-22T03:07:00.728Z,6.64
2023-04-22T03:10:04.550Z,6.75
2023-04-22T03:13:06.244Z,6.72
2023-04-22T03:16:08.113Z,6.69
2023-04-22T03:19:09.987Z,6.79
2023-04-22T03:22:11.691Z,6.64
2023-04-22T03:25:15.021Z,6.26
2023-04-22T03:28:16.871Z,6.43
2023-04-22T03:31:18.650Z,6.24
2023-04-22T03:34:20.359Z,6.45
2023-04-22T03:37:22.128Z,6.34
2023-04-22T03:40:25.278Z,6.21
2023-04-22T03:43:27.085Z,6.13
2023-04-22T03:46:28.867Z,6.23
2023-04-22T03:49:30.724Z,6.18
2023-04-22T03:52:32.419Z,6.00
2023-04-22T03:55:35.593Z,5.78
2023-04-22T03:58:37.341Z,5.81
2023-04-22T04:01:39.168Z,5.55
2023-04-22T04:04:41.133Z,5.07
2023-04-22T04:07:43.090Z,4.90
2023-04-22T04:10:46.262Z,5.02
2023-04-22T04:13:48.022Z,5.00
2023-04-22T04:16:49.788Z,5.01
2023-04-22T04:19:51.820Z,5.26
2023-04-22T04:22:53.570Z,5.49
2023-04-22T04:25:56.736Z,5.66
2023-04-22T04:28:58.516Z,5.70
2023-04-22T04:32:00.253Z,5.83
2023-04-22T04:35:02.040Z,5.95
2023-04-22T04:38:03.882Z,6.12
2023-04-22T04:41:07.015Z,5.66
2023-04-22T04:44:08.768Z,5.65
2023-04-22T04:47:10.510Z,5.53
2023-04-22T04:50:12.338Z,5.76
2023-04-22T04:53:14.128Z,5.97
2023-04-22T04:56:17.296Z,5.88
2023-04-22T04:59:19.077Z,5.85
2023-04-22T05:02:21.146Z,5.86
2023-04-22T05:05:23.278Z,6.02
2023-04-22T05:08:25.087Z,6.08
2023-04-22T05:11:28.200Z,6.24
2023-04-22T05:14:30.543Z,6.25
2023-04-22T05:17:32.321Z,6.41
2023-04-22T05:20:36.174Z,6.45
2023-04-22T05:23:38.126Z,6.54
2023-04-22T05:26:41.626Z,6.61
2023-04-22T05:29:43.515Z,6.70
2023-04-22T05:32:45.358Z,6.66
2023-04-22T05:35:47.173Z,6.70
2023-04-22T05:38:48.964Z,6.81
2023-04-22T05:41:52.052Z,6.87
2023-04-22T05:44:53.805Z,6.95
2023-04-22T05:47:55.588Z,6.89
2023-04-22T05:50:57.400Z,6.93
2023-04-22T05:53:59.258Z,6.96
2023-04-22T05:57:02.470Z,7.07
2023-04-22T06:00:05.186Z,7.13
2023-04-22T06:03:07.060Z,7.13
2023-04-22T06:06:08.974Z,7.25
2023-04-22T06:09:10.767Z,7.35
2023-04-22T06:12:13.862Z,7.36
2023-04-22T06:15:15.816Z,7.47
2023-04-22T06:18:17.478Z,7.54
2023-04-22T06:21:19.212Z,7.58
2023-04-22T06:24:21.233Z,7.63
2023-04-22T06:27:24.385Z,7.71
2023-04-22T06:30:26.431Z,7.71
2023-04-22T06:33:28.174Z,7.78
2023-04-22T06:36:30.776Z,7.86
2023-04-22T06:39:32.637Z,7.93
2023-04-22T06:42:35.757Z,7.96
2023-04-22T06:45:37.751Z,7.99
2023-04-22T06:48:39.546Z,8.07
2023-04-22T06:51:41.747Z,8.13
2023-04-22T06:54:43.612Z,8.24
2023-04-22T06:57:46.976Z,8.35
2023-04-22T07:00:48.713Z,8.40
2023-04-22T07:03:50.470Z,8.48
2023-04-22T07:06:52.275Z,8.59
2023-04-22T07:09:54.088Z,8.67
2023-04-22T07:12:57.135Z,8.76
2023-04-22T07:15:59.426Z,8.79
2023-04-22T07:19:01.388Z,9.03
2023-04-22T07:22:03.167Z,9.15
2023-04-22T07:25:05.616Z,9.17
2023-04-22T07:28:08.763Z,9.25
2023-04-22T07:31:10.617Z,9.42
2023-04-22T07:34:12.445Z,9.53
2023-04-22T07:37:14.279Z,9.63
2023-04-22T07:40:15.977Z,9.67
2023-04-22T07:43:19.159Z,9.82
2023-04-22T07:46:21.057Z,9.85
2023-04-22T07:49:22.935Z,10.00
2023-04-22T07:52:24.752Z,10.08
2023-04-22T07:55:26.724Z,10.22
2023-04-22T07:58:29.877Z,10.26
2023-04-22T08:01:31.645Z,10.53
2023-04-22T08:04:33.665Z,10.61
2023-04-22T08:07:35.604Z,10.81
2023-04-22T08:10:37.474Z,10.87
2023-04-22T08:13:40.578Z,11.03
2023-04-22T08:16:42.361Z,11.06
2023-04-22T08:19:45.542Z,11.21
2023-04-22T08:22:47.387Z,11.21
2023-04-22T08:25:49.440Z,11.34
2023-04-22T08:28:52.518Z,11.42
2023-04-22T08:31:54.226Z,11.42
2023-04-22T08:35:03.873Z,11.49
2023-04-22T08:38:06.426Z,11.53
2023-04-22T08:41:08.596Z,11.63
2023-04-22T08:44:12.006Z,11.72
2023-04-22T08:47:14.933Z,11.80
2023-04-22T08:50:16.654Z,11.87
2023-04-22T08:53:18.492Z,11.96
2023-04-22T08:56:21.161Z,12.00
2023-04-22T08:59:24.422Z,12.06
2023-04-22T09:02:28.914Z,12.17
2023-04-22T09:05:33.338Z,12.29
2023-04-22T09:08:35.804Z,12.31
2023-04-22T09:11:38.206Z,12.41
2023-04-22T09:14:43.050Z,12.56
2023-04-22T09:17:44.908Z,12.77
2023-04-22T09:20:47.972Z,12.81
2023-04-22T09:23:51.844Z,13.04
2023-04-22T09:26:55.700Z,13.32
2023-04-22T09:29:58.815Z,13.30
2023-04-22T09:33:02.214Z,13.19
2023-04-22T09:36:09.013Z,13.26
2023-04-22T09:39:10.912Z,13.44
2023-04-22T09:42:12.751Z,13.56
2023-04-22T09:45:25.396Z,13.76
2023-04-22T09:48:27.209Z,13.76
2023-04-22T09:51:30.400Z,13.81
2023-04-22T09:54:32.238Z,13.88
2023-04-22T09:57:33.950Z,14.02
2023-04-22T10:00:40.005Z,14.03
2023-04-22T10:03:41.842Z,14.25
2023-04-22T10:06:43.897Z,14.33
2023-04-22T10:09:45.953Z,14.51
2023-04-22T10:12:48.034Z,14.52
2023-04-22T10:15:53.599Z,14.63
2023-04-22T10:18:57.284Z,14.84
2023-04-22T10:22:02.420Z,14.97
2023-04-22T10:25:04.869Z,15.01
2023-04-22T10:28:08.801Z,15.07
2023-04-22T10:31:21.894Z,15.01
2023-04-22T10:34:24.061Z,15.06
2023-04-22T10:37:25.798Z,15.22
2023-04-22T10:40:27.550Z,15.33
2023-04-22T10:43:41.236Z,15.37
2023-04-22T10:47:00.472Z,15.63
2023-04-22T10:50:10.138Z,15.53
2023-04-22T10:53:36.011Z,15.49
2023-04-22T10:57:00.624Z,15.43
2023-04-22T11:00:20.434Z,15.55
2023-04-22T11:03:28.734Z,15.64
2023-04-22T11:06:30.925Z,15.77
2023-04-22T11:09:32.704Z,15.85
2023-04-22T11:12:44.652Z,15.99
2023-04-22T11:15:48.160Z,15.98
2023-04-22T11:18:52.209Z,16.15
2023-04-22T11:21:54.545Z,16.14
2023-04-22T11:24:56.683Z,16.22
2023-04-22T11:27:58.730Z,16.28
2023-04-22T11:31:05.476Z,16.30
2023-04-22T11:34:10.429Z,16.34
2023-04-22T11:37:12.252Z,16.32
2023-04-22T11:40:30.274Z,16.38
2023-04-22T11:43:33.597Z,16.35
2023-04-22T11:46:35.436Z,16.69
2023-04-22T11:49:39.100Z,16.63
2023-04-22T11:52:46.953Z,16.48
2023-04-22T11:55:51.577Z,16.51
2023-04-22T11:58:53.335Z,16.51
2023-04-22T12:01:55.116Z,16.65
2023-04-22T12:04:58.942Z,16.80
2023-04-22T12:08:01.349Z,16.86
2023-04-22T12:11:06.058Z,16.92
2023-04-22T12:14:07.922Z,16.97
2023-04-22T12:17:09.931Z,17.12
2023-04-22T12:20:13.266Z,17.18
2023-04-22T12:23:16.046Z,17.37
2023-04-22T12:26:19.727Z,17.43
2023-04-22T12:29:27.417Z,17.51
2023-04-22T12:32:29.138Z,17.64
2023-04-22T12:35:32.671Z,17.64
2023-04-22T12:38:34.902Z,17.65
2023-04-22T12:41:36.693Z,17.70
2023-04-22T12:44:38.604Z,17.79
2023-04-22T12:47:40.405Z,17.83
2023-04-22T12:50:43.844Z,17.87
2023-04-22T12:53:46.022Z,18.13
2023-04-22T12:56:48.483Z,18.18
2023-04-22T12:59:50.234Z,18.15
2023-04-22T13:02:52.102Z,18.15
2023-04-22T13:05:55.319Z,18.14
2023-04-22T13:08:57.123Z,18.24
2023-04-22T13:11:58.916Z,18.32
2023-04-22T13:15:00.653Z,18.36
2023-04-22T13:18:02.534Z,18.45
2023-04-22T13:21:05.924Z,18.66
2023-04-22T13:24:08.124Z,18.65
2023-04-22T13:27:09.909Z,18.80
2023-04-22T13:30:12.669Z,18.72
2023-04-22T13:33:14.362Z,18.83
2023-04-22T13:36:17.437Z,18.83
2023-04-22T13:39:19.256Z,18.95
2023-04-22T13:42:21.194Z,18.97
2023-04-22T13:45:23.050Z,19.08
2023-04-22T13:48:24.816Z,18.96
2023-04-22T13:51:27.986Z,19.03
2023-04-22T13:54:29.770Z,18.99
2023-04-22T13:57:31.803Z,19.23
2023-04-22T14:00:34.134Z,19.01
2023-04-22T14:03:36.167Z,19.03
2023-04-22T14:06:39.722Z,19.09
2023-04-22T14:09:41.702Z,19.12
2023-04-22T14:12:44.911Z,19.12
2023-04-22T14:15:46.835Z,19.17
2023-04-22T14:18:48.602Z,19.22
2023-04-22T14:21:51.796Z,19.40
2023-04-22T14:24:53.619Z,19.66
2023-04-22T14:27:55.433Z,20.02
2023-04-22T14:30:57.310Z,19.85
2023-04-22T14:33:59.143Z,19.80
2023-04-22T14:37:02.253Z,19.77
2023-04-22T14:40:04.630Z,19.56
2023-04-22T14:43:07.194Z,19.45
2023-04-22T14:46:08.978Z,19.47
2023-04-22T14:49:10.728Z,19.48
2023-04-22T14:52:13.864Z,19.52
2023-04-22T14:55:23.328Z,19.61
2023-04-22T14:58:25.686Z,19.73
2023-04-22T15:01:27.539Z,19.67
2023-04-22T15:04:29.470Z,19.62
2023-04-22T15:07:32.615Z,19.78
2023-04-22T15:10:34.468Z,19.83
2023-04-22T15:13:36.188Z,20.18
2023-04-22T15:16:38.150Z,20.35
2023-04-22T15:19:40.278Z,20.29
2023-04-22T15:22:44.474Z,20.57
2023-04-22T15:25:46.349Z,20.83
2023-04-22T15:28:48.159Z,21.09
2023-04-22T15:31:50.823Z,21.23
2023-04-22T15:34:54.367Z,21.25
2023-04-22T15:37:58.160Z,21.28
2023-04-22T15:40:59.840Z,21.00
2023-04-22T15:44:01.926Z,20.85
2023-04-22T15:47:04.076Z,20.83
2023-04-22T15:50:07.941Z,20.59
2023-04-22T15:53:11.104Z,20.47
2023-04-22T15:56:13.195Z,20.33
2023-04-22T15:59:15.040Z,20.61
2023-04-22T16:02:16.950Z,20.95
2023-04-22T16:05:19.037Z,21.17
2023-04-22T16:08:22.216Z,21.58
2023-04-22T16:11:24.037Z,21.77
2023-04-22T16:14:25.741Z,21.87
2023-04-22T16:17:27.590Z,22.03
2023-04-22T16:20:29.911Z,22.15
2023-04-22T16:23:33.121Z,22.20
2023-04-22T16:26:34.992Z,21.99
2023-04-22T16:29:36.726Z,21.69
2023-04-22T16:32:38.520Z,21.40
2023-04-22T16:35:40.262Z,21.28
2023-04-22T16:38:43.416Z,21.42
2023-04-22T16:41:45.178Z,21.39
2023-04-22T16:44:46.960Z,21.38
2023-04-22T16:47:48.842Z,21.35
2023-04-22T16:50:50.708Z,21.37
2023-04-22T16:53:53.802Z,21.49
2023-04-22T16:56:55.681Z,21.55
2023-04-22T16:59:57.440Z,21.77
2023-04-22T17:02:59.511Z,22.03
2023-04-22T17:06:01.442Z,22.29
2023-04-22T17:09:04.581Z,22.34
2023-04-22T17:12:06.608Z,22.47
2023-04-22T17:15:09.020Z,22.50
2023-04-22T17:18:10.840Z,22.69
2023-04-22T17:21:12.651Z,22.62
2023-04-22T17:24:15.804Z,22.28
2023-04-22T17:27:17.613Z,22.18
2023-04-22T17:30:19.436Z,22.12
2023-04-22T17:33:21.289Z,21.97
2023-04-22T17:36:23.045Z,21.53
2023-04-22T17:39:26.178Z,21.21
2023-04-22T17:42:38.712Z,20.83
2023-04-22T17:45:44.508Z,20.54
2023-04-22T17:48:46.247Z,20.35
2023-04-22T17:51:48.012Z,20.14
2023-04-22T17:54:51.282Z,19.85
2023-04-22T17:57:53.068Z,19.73
2023-04-22T18:00:54.985Z,19.57
2023-04-22T18:03:56.958Z,19.44
2023-04-22T18:06:58.865Z,19.29
2023-04-22T18:10:02.037Z,19.11
2023-04-22T18:13:04.111Z,18.91
2023-04-22T18:16:06.368Z,18.80
2023-04-22T18:19:08.086Z,18.62
2023-04-22T18:22:09.851Z,18.60
2023-04-22T18:25:13.012Z,18.40
2023-04-22T18:28:15.052Z,18.22
2023-04-22T18:31:16.868Z,17.85
2023-04-22T18:34:18.781Z,17.51
2023-04-22T18:37:20.601Z,17.22
2023-04-22T18:40:24.000Z,16.74
2023-04-22T18:43:25.799Z,16.54
2023-04-22T18:46:27.611Z,15.89
2023-04-22T18:49:29.424Z,15.77
2023-04-22T18:52:31.228Z,15.52
2023-04-22T18:55:34.345Z,14.99
2023-04-22T18:58:36.385Z,15.12
2023-04-22T19:01:38.243Z,14.86
2023-04-22T19:04:41.114Z,14.86
2023-04-22T19:07:45.090Z,14.63
2023-04-22T19:10:52.040Z,14.63
2023-04-22T19:13:53.957Z,14.79
2023-04-22T19:16:55.987Z,14.65
2023-04-22T19:19:58.268Z,14.45
2023-04-22T19:23:00.424Z,14.48
2023-04-22T19:26:03.889Z,14.38
2023-04-22T19:29:05.735Z,14.51
2023-04-22T19:32:07.950Z,14.53
2023-04-22T19:35:10.050Z,14.59
2023-04-22T19:38:12.460Z,14.41
2023-04-22T19:41:15.977Z,14.09
2023-04-22T19:44:18.625Z,14.19
2023-04-22T19:47:20.711Z,13.97
2023-04-22T19:50:23.703Z,13.76
2023-04-22T19:53:25.801Z,13.49
2023-04-22T19:56:29.661Z,13.66
2023-04-22T19:59:31.873Z,13.74
2023-04-22T20:02:35.052Z,13.90
2023-04-22T20:05:38.234Z,13.96
2023-04-22T20:08:40.981Z,13.89
2023-04-22T20:11:44.659Z,13.95
2023-04-22T20:14:47.160Z,13.92
2023-04-22T20:17:49.589Z,13.75
2023-04-22T20:20:53.157Z,13.67
2023-04-22T20:23:57.279Z,13.73
2023-04-22T20:27:00.770Z,13.85
2023-04-22T20:30:03.236Z,13.74
2023-04-22T20:33:05.373Z,13.85
2023-04-22T20:36:07.718Z,13.69
2023-04-22T20:39:12.770Z,13.42
2023-04-22T20:42:15.912Z,13.36
2023-04-22T20:45:17.794Z,13.38
2023-04-22T20:48:19.541Z,13.39
2023-04-22T20:51:21.485Z,13.19
2023-04-22T20:54:28.907Z,13.16
2023-04-22T20:57:32.715Z,13.10
2023-04-22T21:00:34.464Z,13.15
2023-04-22T21:03:39.105Z,13.18
2023-04-22T21:06:43.982Z,13.18
2023-04-22T21:09:46.222Z,13.07
2023-04-22T21:12:50.162Z,13.00
2023-04-22T21:15:57.756Z,12.47
2023-04-22T21:19:00.116Z,12.05
2023-04-22T21:22:05.118Z,12.14
2023-04-22T21:25:08.105Z,12.27
2023-04-22T21:28:11.805Z,12.34
2023-04-22T21:31:14.236Z,12.57
2023-04-22T21:34:16.244Z,12.52
2023-04-22T21:37:18.019Z,12.44
2023-04-22T21:40:19.909Z,12.15
2023-04-22T21:43:23.181Z,11.95
2023-04-22T21:46:25.151Z,11.94
2023-04-22T21:49:27.065Z,12.12
2023-04-22T21:52:29.077Z,12.04
2023-04-22T21:55:31.328Z,11.73
2023-04-22T21:58:34.538Z,11.73
2023-04-22T22:01:36.932Z,11.34
2023-04-22T22:04:39.264Z,10.95
2023-04-22T22:07:43.131Z,10.88
2023-04-22T22:10:45.156Z,10.72
2023-04-22T22:13:48.310Z,10.61
2023-04-22T22:16:50.196Z,10.70
2023-04-22T22:19:52.076Z,10.94
2023-04-22T22:22:53.830Z,11.12
2023-04-22T22:25:55.793Z,11.09
2023-04-22T22:28:59.164Z,11.04
2023-04-22T22:32:01.232Z,11.07
2023-04-22T22:35:03.421Z,11.05
2023-04-22T22:38:05.450Z,11.07
2023-04-22T22:41:07.202Z,10.71
2023-04-22T22:44:10.373Z,10.82
2023-04-22T22:47:12.088Z,10.98
2023-04-22T22:50:13.832Z,11.06
2023-04-22T22:53:15.505Z,11.01
2023-04-22T22:56:17.241Z,11.21
2023-04-22T22:59:20.387Z,11.29
2023-04-22T23:02:23.241Z,11.48
2023-04-22T23:05:25.217Z,11.46
2023-04-22T23:08:26.937Z,11.46
2023-04-22T23:11:28.741Z,11.48
2023-04-22T23:14:32.021Z,11.44
2023-04-22T23:17:33.799Z,11.47
2023-04-22T23:20:37.108Z,11.35
2023-04-22T23:23:40.968Z,11.19
2023-04-22T23:26:43.480Z,11.05
2023-04-22T23:29:47.218Z,11.07
2023-04-22T23:32:51.830Z,11.20
2023-04-22T23:35:54.241Z,11.08
2023-04-22T23:38:57.846Z,11.13
2023-04-22T23:41:59.855Z,11.10
2023-04-22T23:45:03.093Z,11.19
2023-04-22T23:48:05.031Z,11.22
2023-04-22T23:51:06.834Z,11.19
2023-04-22T23:54:08.630Z,11.09
2023-04-22T23:57:10.913Z,10.99
